createdAt,value
2018-08-16T00:00:43.538Z,23.96
2018-08-16T00:03:09.849Z,23.96
2018-08-16T00:05:36.200Z,23.87
2018-08-16T00:08:02.542Z,23.80
2018-08-16T00:10:28.857Z,23.67
2018-08-16T00:12:55.222Z,23.62
2018-08-16T00:15:21.568Z,23.63
2018-08-16T00:17:47.886Z,23.71
2018-08-16T00:20:14.202Z,23.77
2018-08-16T00:22:40.521Z,23.74
2018-08-16T00:25:07.687Z,23.62
2018-08-16T00:27:34.028Z,23.53
2018-08-16T00:30:00.341Z,23.49
2018-08-16T00:32:26.651Z,23.52
2018-08-16T00:34:53.016Z,23.60
2018-08-16T00:37:19.356Z,23.59
2018-08-16T00:39:45.694Z,23.49
2018-08-16T00:42:12.046Z,23.36
2018-08-16T00:44:38.393Z,23.20
2018-08-16T00:47:04.772Z,23.20
2018-08-16T00:49:31.100Z,23.17
2018-08-16T00:51:57.447Z,23.16
2018-08-16T00:54:23.820Z,23.07
2018-08-16T00:56:50.161Z,23.00
2018-08-16T00:59:16.467Z,22.99
2018-08-16T01:01:42.780Z,23.06
2018-08-16T01:04:09.089Z,23.18
2018-08-16T01:06:35.404Z,23.11
2018-08-16T01:09:01.724Z,23.07
2018-08-16T01:11:28.028Z,22.97
2018-08-16T01:13:54.356Z,22.90
2018-08-16T01:16:20.663Z,22.92
2018-08-16T01:18:46.967Z,22.93
2018-08-16T01:21:13.275Z,22.99
2018-08-16T01:23:39.583Z,22.93
2018-08-16T01:26:05.893Z,22.92
2018-08-16T01:28:32.198Z,22.99
2018-08-16T01:30:58.511Z,23.00
2018-08-16T01:33:24.815Z,22.96
2018-08-16T01:35:51.127Z,22.90
2018-08-16T01:38:17.484Z,22.86
2018-08-16T01:40:43.794Z,22.69
2018-08-16T01:43:10.099Z,22.75
2018-08-16T01:45:36.410Z,22.76
2018-08-16T01:48:02.720Z,22.76
2018-08-16T01:50:29.029Z,22.80
2018-08-16T01:52:55.393Z,22.79
2018-08-16T01:55:21.712Z,22.77
2018-08-16T01:57:48.021Z,22.78
2018-08-16T02:00:14.329Z,22.79
2018-08-16T02:02:40.645Z,22.69
2018-08-16T02:05:06.970Z,22.62
2018-08-16T02:07:33.277Z,22.62
2018-08-16T02:09:59.587Z,22.65
2018-08-16T02:12:25.903Z,22.67
2018-08-16T02:14:52.208Z,22.64
2018-08-16T02:17:18.520Z,22.66
2018-08-16T02:19:44.871Z,22.65
2018-08-16T02:22:11.182Z,22.64
2018-08-16T02:24:37.532Z,22.61
2018-08-16T02:27:03.883Z,22.60
2018-08-16T02:29:30.187Z,22.56
2018-08-16T02:31:56.520Z,22.52
2018-08-16T02:34:22.872Z,22.50
2018-08-16T02:36:49.190Z,22.51
2018-08-16T02:39:15.494Z,22.53
2018-08-16T02:41:41.848Z,22.55
2018-08-16T02:44:08.151Z,22.50
2018-08-16T02:46:34.456Z,22.51
2018-08-16T02:49:00.769Z,22.48
2018-08-16T02:51:27.078Z,22.42
2018-08-16T02:53:53.387Z,22.41
2018-08-16T02:56:19.696Z,22.38
2018-08-16T02:58:46.003Z,22.31
2018-08-16T03:01:12.311Z,22.30
2018-08-16T03:03:38.623Z,22.31
2018-08-16T03:06:04.949Z,22.28
2018-08-16T03:08:31.241Z,22.34
2018-08-16T03:10:57.547Z,22.37
2018-08-16T03:13:23.855Z,22.45
2018-08-16T03:15:50.175Z,22.47
2018-08-16T03:18:16.490Z,22.41
2018-08-16T03:20:42.810Z,22.37
2018-08-16T03:23:09.124Z,22.29
2018-08-16T03:25:35.432Z,22.22
2018-08-16T03:28:01.751Z,22.17
2018-08-16T03:30:28.057Z,22.15
2018-08-16T03:32:54.412Z,22.11
2018-08-16T03:35:20.811Z,22.10
2018-08-16T03:37:47.019Z,22.11
2018-08-16T03:40:13.331Z,22.15
2018-08-16T03:42:39.644Z,22.12
2018-08-16T03:45:05.959Z,22.11
2018-08-16T03:47:32.274Z,22.09
2018-08-16T03:49:58.585Z,22.07
2018-08-16T03:52:24.891Z,22.06
2018-08-16T03:54:51.203Z,22.01
2018-08-16T03:57:17.516Z,22.04
2018-08-16T03:59:43.823Z,22.09
2018-08-16T04:02:10.134Z,22.12
2018-08-16T04:04:36.448Z,22.17
2018-08-16T04:07:02.751Z,22.18
2018-08-16T04:09:29.062Z,22.15
2018-08-16T04:11:55.373Z,22.13
2018-08-16T04:14:21.682Z,22.06
2018-08-16T04:16:47.997Z,22.04
2018-08-16T04:19:14.302Z,22.06
2018-08-16T04:21:40.614Z,21.97
2018-08-16T04:24:06.956Z,22.01
2018-08-16T04:26:33.258Z,22.07
2018-08-16T04:28:59.621Z,22.15
2018-08-16T04:31:25.873Z,22.21
2018-08-16T04:33:52.187Z,22.22
2018-08-16T04:36:18.539Z,22.16
2018-08-16T04:38:44.852Z,22.17
2018-08-16T04:41:11.166Z,22.19
2018-08-16T04:43:37.477Z,22.34
2018-08-16T04:46:03.788Z,22.65
2018-08-16T04:48:30.100Z,22.89
2018-08-16T04:50:56.456Z,23.08
2018-08-16T04:53:22.768Z,23.28
2018-08-16T04:55:49.078Z,23.38
2018-08-16T04:58:15.389Z,23.47
2018-08-16T05:00:41.740Z,23.59
2018-08-16T05:03:08.052Z,23.71
2018-08-16T05:05:34.358Z,23.84
2018-08-16T05:08:00.672Z,23.95
2018-08-16T05:10:27.028Z,23.88
2018-08-16T05:12:53.340Z,23.69
2018-08-16T05:15:19.654Z,23.54
2018-08-16T05:17:45.966Z,23.44
2018-08-16T05:20:12.324Z,23.41
2018-08-16T05:22:38.590Z,23.38
2018-08-16T05:25:04.896Z,23.41
2018-08-16T05:27:31.221Z,23.55
2018-08-16T05:29:57.522Z,23.64
2018-08-16T05:32:23.895Z,23.70
2018-08-16T05:34:50.222Z,23.50
2018-08-16T05:37:16.537Z,23.33
2018-08-16T05:39:42.852Z,23.26
2018-08-16T05:42:09.157Z,23.25
2018-08-16T05:44:35.487Z,23.23
2018-08-16T05:47:01.810Z,23.21
2018-08-16T05:49:28.120Z,23.23
2018-08-16T05:51:54.429Z,23.35
2018-08-16T05:54:20.735Z,23.50
2018-08-16T05:56:47.061Z,23.63
2018-08-16T05:59:13.388Z,23.72
2018-08-16T06:01:39.684Z,23.80
2018-08-16T06:04:05.997Z,23.85
2018-08-16T06:06:32.319Z,23.88
2018-08-16T06:08:58.626Z,23.81
2018-08-16T06:11:24.939Z,23.92
2018-08-16T06:13:51.256Z,24.06
2018-08-16T06:16:17.565Z,24.10
2018-08-16T06:18:43.881Z,24.09
2018-08-16T06:21:10.203Z,24.25
2018-08-16T06:23:36.516Z,24.30
2018-08-16T06:26:02.829Z,24.48
2018-08-16T06:28:29.176Z,24.55
2018-08-16T06:30:55.488Z,24.65
2018-08-16T06:33:21.786Z,24.74
2018-08-16T06:35:48.107Z,24.89
2018-08-16T06:38:14.423Z,24.98
2018-08-16T06:40:40.743Z,25.09
2018-08-16T06:43:07.059Z,25.21
2018-08-16T06:45:33.371Z,25.30
2018-08-16T06:47:59.688Z,25.39
2018-08-16T06:50:25.995Z,25.45
2018-08-16T06:52:52.299Z,25.47
2018-08-16T06:55:18.608Z,25.61
2018-08-16T06:57:44.927Z,25.77
2018-08-16T07:00:11.277Z,25.93
2018-08-16T07:02:37.589Z,26.07
2018-08-16T07:05:03.908Z,26.18
2018-08-16T07:07:30.215Z,26.23
2018-08-16T07:09:56.519Z,26.25
2018-08-16T07:12:22.841Z,26.35
2018-08-16T07:14:49.139Z,26.52
2018-08-16T07:17:15.449Z,26.63
2018-08-16T07:19:41.768Z,26.72
2018-08-16T07:22:08.083Z,26.89
2018-08-16T07:24:34.433Z,27.04
2018-08-16T07:27:00.705Z,27.13
2018-08-16T07:29:27.012Z,27.21
2018-08-16T07:31:53.328Z,27.27
2018-08-16T07:34:19.638Z,27.36
2018-08-16T07:36:45.956Z,27.50
2018-08-16T07:39:12.264Z,27.60
2018-08-16T07:41:38.615Z,27.66
2018-08-16T07:44:04.919Z,27.76
2018-08-16T07:46:31.357Z,27.85
2018-08-16T07:48:57.576Z,27.93
2018-08-16T07:51:24.049Z,27.99
2018-08-16T07:53:50.194Z,28.07
2018-08-16T07:56:16.510Z,28.16
2018-08-16T07:58:42.820Z,28.32
2018-08-16T08:01:09.123Z,28.41
2018-08-16T08:03:35.444Z,28.45
2018-08-16T08:06:01.752Z,28.52
2018-08-16T08:08:28.103Z,28.66
2018-08-16T08:10:54.408Z,28.79
2018-08-16T08:13:20.710Z,28.87
2018-08-16T08:15:47.021Z,28.96
2018-08-16T08:18:13.384Z,29.02
2018-08-16T08:20:39.694Z,29.12
2018-08-16T08:23:06.000Z,29.27
2018-08-16T08:25:32.363Z,29.31
2018-08-16T08:27:58.615Z,29.38
2018-08-16T08:30:24.924Z,29.42
2018-08-16T08:32:51.230Z,29.48
2018-08-16T08:35:17.540Z,29.43
2018-08-16T08:37:43.853Z,29.38
2018-08-16T08:40:10.164Z,29.47
2018-08-16T08:42:36.471Z,29.49
2018-08-16T08:45:02.784Z,29.38
2018-08-16T08:47:29.092Z,29.49
2018-08-16T08:49:55.399Z,29.63
2018-08-16T08:52:21.708Z,29.84
2018-08-16T08:54:48.022Z,30.03
2018-08-16T08:57:14.368Z,30.18
2018-08-16T08:59:40.681Z,30.26
2018-08-16T09:02:06.995Z,30.29
2018-08-16T09:04:33.313Z,30.32
2018-08-16T09:06:59.661Z,30.39
2018-08-16T09:09:25.929Z,30.35
2018-08-16T09:11:52.252Z,30.34
2018-08-16T09:14:18.576Z,30.30
2018-08-16T09:16:44.888Z,30.23
2018-08-16T09:19:11.196Z,30.27
2018-08-16T09:21:37.567Z,30.34
2018-08-16T09:24:04.002Z,30.41
2018-08-16T09:26:30.252Z,30.46
2018-08-16T09:28:56.576Z,30.45
2018-08-16T09:31:22.985Z,30.40
2018-08-16T09:33:49.240Z,30.36
2018-08-16T09:36:15.547Z,30.31
2018-08-16T09:38:41.855Z,30.40
2018-08-16T09:41:08.208Z,30.43
2018-08-16T09:43:34.517Z,30.62
2018-08-16T09:46:00.828Z,30.72
2018-08-16T09:48:27.135Z,30.76
2018-08-16T09:50:53.446Z,30.83
2018-08-16T09:53:19.758Z,30.95
2018-08-16T09:55:46.076Z,31.07
2018-08-16T09:58:12.385Z,31.21
2018-08-16T10:00:38.698Z,31.37
2018-08-16T10:03:05.011Z,31.48
2018-08-16T10:05:31.319Z,31.43
2018-08-16T10:07:57.635Z,31.20
2018-08-16T10:10:23.939Z,30.91
2018-08-16T10:12:50.260Z,30.80
2018-08-16T10:15:16.569Z,30.85
2018-08-16T10:17:42.877Z,30.96
2018-08-16T10:20:09.184Z,31.10
2018-08-16T10:22:35.531Z,31.27
2018-08-16T10:25:01.841Z,31.43
2018-08-16T10:27:28.217Z,31.47
2018-08-16T10:29:54.526Z,31.46
2018-08-16T10:32:20.844Z,31.52
2018-08-16T10:34:47.159Z,31.64
2018-08-16T10:37:13.557Z,31.73
2018-08-16T10:39:39.793Z,31.80
2018-08-16T10:42:06.097Z,31.76
2018-08-16T10:44:32.458Z,31.71
2018-08-16T10:46:58.731Z,31.73
2018-08-16T10:49:25.052Z,31.76
2018-08-16T10:51:51.369Z,31.79
2018-08-16T10:54:17.690Z,31.68
2018-08-16T10:56:44.011Z,31.49
2018-08-16T10:59:10.321Z,31.36
2018-08-16T11:01:36.631Z,31.25
2018-08-16T11:04:02.936Z,31.14
2018-08-16T11:06:29.265Z,31.12
2018-08-16T11:08:55.577Z,31.09
2018-08-16T11:11:21.888Z,31.00
2018-08-16T11:13:48.234Z,30.86
2018-08-16T11:16:14.545Z,30.82
2018-08-16T11:18:40.869Z,30.95
2018-08-16T11:21:07.229Z,31.09
2018-08-16T11:23:33.545Z,31.15
2018-08-16T11:25:59.862Z,31.16
2018-08-16T11:28:26.179Z,31.18
2018-08-16T11:30:52.490Z,31.02
2018-08-16T11:33:18.805Z,30.89
2018-08-16T11:35:45.120Z,30.77
2018-08-16T11:38:11.431Z,30.75
2018-08-16T11:40:37.809Z,30.87
2018-08-16T11:43:04.060Z,30.86
2018-08-16T11:45:30.366Z,30.86
2018-08-16T11:47:56.678Z,30.82
2018-08-16T11:50:23.006Z,30.78
2018-08-16T11:52:49.325Z,30.72
2018-08-16T11:55:15.647Z,30.66
2018-08-16T11:57:41.951Z,30.65
2018-08-16T12:00:08.301Z,30.57
2018-08-16T12:02:34.615Z,30.48
2018-08-16T12:05:00.925Z,30.44
2018-08-16T12:07:27.240Z,30.44
2018-08-16T12:09:53.600Z,30.44
2018-08-16T12:12:19.961Z,30.38
2018-08-16T12:14:46.331Z,30.34
2018-08-16T12:17:12.601Z,30.30
2018-08-16T12:19:38.927Z,30.28
2018-08-16T12:22:05.243Z,30.33
2018-08-16T12:24:31.553Z,30.45
2018-08-16T12:26:57.875Z,30.49
2018-08-16T12:29:24.191Z,30.47
2018-08-16T12:31:50.509Z,30.39
2018-08-16T12:34:16.820Z,30.27
2018-08-16T12:36:43.127Z,30.16
2018-08-16T12:39:09.440Z,30.11
2018-08-16T12:41:35.750Z,30.11
2018-08-16T12:44:02.059Z,30.15
2018-08-16T12:46:28.372Z,30.18
2018-08-16T12:48:54.687Z,30.16
2018-08-16T12:51:21.000Z,30.14
2018-08-16T12:53:47.314Z,30.10
2018-08-16T12:56:13.634Z,30.09
2018-08-16T12:58:39.947Z,30.11
2018-08-16T13:01:06.260Z,30.13
2018-08-16T13:03:32.575Z,30.12
2018-08-16T13:05:58.881Z,30.10
2018-08-16T13:08:25.202Z,30.09
2018-08-16T13:10:51.522Z,30.03
2018-08-16T13:13:17.846Z,30.02
2018-08-16T13:15:44.174Z,30.02
2018-08-16T13:18:10.493Z,29.97
2018-08-16T13:20:36.828Z,29.94
2018-08-16T13:23:03.136Z,29.91
2018-08-16T13:25:29.446Z,29.90
2018-08-16T13:27:55.767Z,29.93
2018-08-16T13:30:22.131Z,29.95
2018-08-16T13:32:48.469Z,29.98
2018-08-16T13:35:14.821Z,29.95
2018-08-16T13:37:41.138Z,29.94
2018-08-16T13:40:07.459Z,29.95
2018-08-16T13:42:33.792Z,29.97
2018-08-16T13:45:00.103Z,30.00
2018-08-16T13:47:26.417Z,30.02
2018-08-16T13:49:52.730Z,30.03
2018-08-16T13:52:19.050Z,30.02
2018-08-16T13:54:45.418Z,30.03
2018-08-16T13:57:11.725Z,30.01
2018-08-16T13:59:38.039Z,30.01
2018-08-16T14:02:04.355Z,29.99
2018-08-16T14:04:30.684Z,29.92
2018-08-16T14:06:57.005Z,29.82
2018-08-16T14:09:23.331Z,29.78
2018-08-16T14:11:49.645Z,29.75
2018-08-16T14:14:15.956Z,29.78
2018-08-16T14:16:42.278Z,29.81
2018-08-16T14:19:08.596Z,29.84
2018-08-16T14:21:34.924Z,29.85
2018-08-16T14:24:01.233Z,29.78
2018-08-16T14:26:27.551Z,29.76
2018-08-16T14:28:53.880Z,29.71
2018-08-16T14:31:20.198Z,29.69
2018-08-16T14:33:46.514Z,29.69
2018-08-16T14:36:12.823Z,29.68
2018-08-16T14:38:39.183Z,29.64
2018-08-16T14:41:05.477Z,29.57
2018-08-16T14:43:31.797Z,29.52
2018-08-16T14:45:58.110Z,29.47
2018-08-16T14:48:24.420Z,29.45
2018-08-16T14:50:50.737Z,29.42
2018-08-16T14:53:17.048Z,29.37
2018-08-16T14:55:43.396Z,29.34
2018-08-16T14:58:09.718Z,29.33
2018-08-16T15:00:36.024Z,29.36
2018-08-16T15:03:02.341Z,29.42
2018-08-16T15:05:28.658Z,29.38
2018-08-16T15:07:54.972Z,29.40
2018-08-16T15:10:21.289Z,29.46
2018-08-16T15:12:47.618Z,29.47
2018-08-16T15:15:13.935Z,29.51
2018-08-16T15:17:40.243Z,29.52
2018-08-16T15:20:06.563Z,29.54
2018-08-16T15:22:32.871Z,29.54
2018-08-16T15:24:59.199Z,29.53
2018-08-16T15:27:25.511Z,29.55
2018-08-16T15:29:51.807Z,29.56
2018-08-16T15:32:18.226Z,29.54
2018-08-16T15:34:44.439Z,29.53
2018-08-16T15:37:10.758Z,29.49
2018-08-16T15:39:37.145Z,29.52
2018-08-16T15:42:03.399Z,29.52
2018-08-16T15:44:29.826Z,29.42
2018-08-16T15:46:56.090Z,29.42
2018-08-16T15:49:22.395Z,29.46
2018-08-16T15:51:48.710Z,29.44
2018-08-16T15:54:15.029Z,29.43
2018-08-16T15:56:41.337Z,29.43
2018-08-16T15:59:07.713Z,29.46
2018-08-16T16:01:33.973Z,29.48
2018-08-16T16:04:00.327Z,29.44
2018-08-16T16:06:26.687Z,29.41
2018-08-16T16:08:53.022Z,29.42
2018-08-16T16:11:19.337Z,29.33
2018-08-16T16:13:45.660Z,29.31
2018-08-16T16:16:11.990Z,29.30
2018-08-16T16:18:38.296Z,29.30
2018-08-16T16:21:04.611Z,29.21
2018-08-16T16:23:30.917Z,29.16
2018-08-16T16:25:57.230Z,29.13
2018-08-16T16:28:23.543Z,29.11
2018-08-16T16:30:50.000Z,29.05
2018-08-16T16:33:16.233Z,29.00
2018-08-16T16:35:42.541Z,28.93
2018-08-16T16:38:08.853Z,28.95
2018-08-16T16:40:35.218Z,28.93
2018-08-16T16:43:01.527Z,28.92
2018-08-16T16:45:27.845Z,28.92
2018-08-16T16:47:54.163Z,28.91
2018-08-16T16:50:20.477Z,28.88
2018-08-16T16:52:46.799Z,28.81
2018-08-16T16:55:13.113Z,28.82
2018-08-16T16:57:39.469Z,28.78
2018-08-16T17:00:05.819Z,28.78
2018-08-16T17:02:32.141Z,28.69
2018-08-16T17:04:58.480Z,28.64
2018-08-16T17:07:24.850Z,28.60
2018-08-16T17:09:51.104Z,28.54
2018-08-16T17:12:17.419Z,28.52
2018-08-16T17:14:43.744Z,28.51
2018-08-16T17:17:10.059Z,28.50
2018-08-16T17:19:36.368Z,28.46
2018-08-16T17:22:02.766Z,28.44
2018-08-16T17:24:29.122Z,28.36
2018-08-16T17:26:55.453Z,28.26
2018-08-16T17:29:21.765Z,28.19
2018-08-16T17:31:48.079Z,28.14
2018-08-16T17:34:14.392Z,28.09
2018-08-16T17:36:40.771Z,28.09
2018-08-16T17:39:09.483Z,28.03
2018-08-16T17:41:35.791Z,27.99
2018-08-16T17:44:02.113Z,27.92
2018-08-16T17:46:28.418Z,27.93
2018-08-16T17:48:54.733Z,27.88
2018-08-16T17:51:21.047Z,27.87
2018-08-16T17:53:47.365Z,27.82
2018-08-16T17:56:13.678Z,27.71
2018-08-16T17:58:39.990Z,27.52
2018-08-16T18:01:06.301Z,27.42
2018-08-16T18:03:32.614Z,27.46
2018-08-16T18:05:58.960Z,27.46
2018-08-16T18:08:25.275Z,27.46
2018-08-16T18:10:51.580Z,27.52
2018-08-16T18:13:17.888Z,27.55
2018-08-16T18:15:44.194Z,27.50
2018-08-16T18:18:10.509Z,27.46
2018-08-16T18:20:36.823Z,27.40
2018-08-16T18:23:03.142Z,27.30
2018-08-16T18:25:29.449Z,27.33
2018-08-16T18:27:55.769Z,27.31
2018-08-16T18:30:22.084Z,27.33
2018-08-16T18:32:48.392Z,27.39
2018-08-16T18:35:14.715Z,27.42
2018-08-16T18:37:41.057Z,27.34
2018-08-16T18:40:07.373Z,27.29
2018-08-16T18:42:33.697Z,27.23
2018-08-16T18:44:59.998Z,27.20
2018-08-16T18:47:26.317Z,27.16
2018-08-16T18:49:52.626Z,27.11
2018-08-16T18:52:18.933Z,27.10
2018-08-16T18:54:45.249Z,27.13
2018-08-16T18:57:11.563Z,27.08
2018-08-16T18:59:37.894Z,27.05
2018-08-16T19:02:04.224Z,27.07
2018-08-16T19:04:30.545Z,27.07
2018-08-16T19:06:56.910Z,27.10
2018-08-16T19:09:23.222Z,27.09
2018-08-16T19:11:49.547Z,26.99
2018-08-16T19:14:15.873Z,26.96
2018-08-16T19:16:42.194Z,26.96
2018-08-16T19:19:08.504Z,26.93
2018-08-16T19:21:34.816Z,26.91
2018-08-16T19:24:01.151Z,26.90
2018-08-16T19:26:27.465Z,26.86
2018-08-16T19:28:53.787Z,26.82
2018-08-16T19:31:20.096Z,26.79
2018-08-16T19:33:46.449Z,26.77
2018-08-16T19:36:12.799Z,26.70
2018-08-16T19:38:39.137Z,26.64
2018-08-16T19:41:05.447Z,26.63
2018-08-16T19:43:31.778Z,26.62
2018-08-16T19:45:58.101Z,26.61
2018-08-16T19:48:24.504Z,26.58
2018-08-16T19:50:50.731Z,26.52
2018-08-16T19:53:17.045Z,26.55
2018-08-16T19:55:43.389Z,26.57
2018-08-16T19:58:09.741Z,26.58
2018-08-16T20:00:36.043Z,26.58
2018-08-16T20:03:02.443Z,26.55
2018-08-16T20:05:28.714Z,26.60
2018-08-16T20:07:55.068Z,26.61
2018-08-16T20:10:21.390Z,26.56
2018-08-16T20:12:47.699Z,26.54
2018-08-16T20:15:14.002Z,26.52
2018-08-16T20:17:40.371Z,26.46
2018-08-16T20:20:06.639Z,26.46
2018-08-16T20:22:32.951Z,26.39
2018-08-16T20:24:59.325Z,26.38
2018-08-16T20:27:25.585Z,26.41
2018-08-16T20:29:51.910Z,26.38
2018-08-16T20:32:18.220Z,26.38
2018-08-16T20:34:44.528Z,26.36
2018-08-16T20:37:10.840Z,26.34
2018-08-16T20:39:37.149Z,26.32
2018-08-16T20:42:03.589Z,26.32
2018-08-16T20:44:29.764Z,26.28
2018-08-16T20:46:56.074Z,26.25
2018-08-16T20:49:22.403Z,26.23
2018-08-16T20:51:48.712Z,26.18
2018-08-16T20:54:15.043Z,26.10
2018-08-16T20:56:41.355Z,26.00
2018-08-16T20:59:07.666Z,26.06
2018-08-16T21:01:34.012Z,26.04
2018-08-16T21:04:00.329Z,26.06
2018-08-16T21:06:26.638Z,26.10
2018-08-16T21:08:52.950Z,26.11
2018-08-16T21:11:19.337Z,26.06
2018-08-16T21:13:45.647Z,26.01
2018-08-16T21:16:11.971Z,26.03
2018-08-16T21:18:38.287Z,26.04
2018-08-16T21:21:04.597Z,25.94
2018-08-16T21:23:30.911Z,25.90
2018-08-16T21:25:57.232Z,25.92
2018-08-16T21:28:23.547Z,25.93
2018-08-16T21:30:49.896Z,25.92
2018-08-16T21:33:16.206Z,25.81
2018-08-16T21:35:42.554Z,25.84
2018-08-16T21:38:08.868Z,25.80
2018-08-16T21:40:35.175Z,25.82
2018-08-16T21:43:01.529Z,25.78
2018-08-16T21:45:27.842Z,25.73
2018-08-16T21:47:54.195Z,25.72
2018-08-16T21:50:20.503Z,25.64
2018-08-16T21:52:46.824Z,25.48
2018-08-16T21:55:13.135Z,25.50
2018-08-16T21:57:39.441Z,25.53
2018-08-16T22:00:05.795Z,25.50
2018-08-16T22:02:32.144Z,25.40
2018-08-16T22:04:58.508Z,25.43
2018-08-16T22:07:24.821Z,25.44
2018-08-16T22:09:51.191Z,25.43
2018-08-16T22:12:17.504Z,25.43
2018-08-16T22:14:43.816Z,25.35
2018-08-16T22:17:10.128Z,25.30
2018-08-16T22:19:36.447Z,25.31
2018-08-16T22:22:02.756Z,25.27
2018-08-16T22:24:29.066Z,25.27
2018-08-16T22:26:55.387Z,25.26
2018-08-16T22:29:21.700Z,25.13
2018-08-16T22:31:48.014Z,24.99
2018-08-16T22:34:14.324Z,24.94
2018-08-16T22:36:40.746Z,24.99
2018-08-16T22:39:06.958Z,25.01
2018-08-16T22:41:33.275Z,25.02
2018-08-16T22:43:59.592Z,25.07
2018-08-16T22:46:25.923Z,25.15
2018-08-16T22:48:52.284Z,25.20
2018-08-16T22:51:18.597Z,25.11
2018-08-16T22:53:44.908Z,25.10
2018-08-16T22:56:11.217Z,25.15
2018-08-16T22:58:37.577Z,25.04
2018-08-16T23:01:03.884Z,25.02
2018-08-16T23:03:30.192Z,25.02
2018-08-16T23:05:56.501Z,25.01
2018-08-16T23:08:22.817Z,25.00
2018-08-16T23:10:49.130Z,24.93
2018-08-16T23:13:15.442Z,24.85
2018-08-16T23:15:41.755Z,24.69
2018-08-16T23:18:08.072Z,24.41
2018-08-16T23:20:34.385Z,23.96
2018-08-16T23:23:00.692Z,23.79
2018-08-16T23:25:27.007Z,23.85
2018-08-16T23:27:53.315Z,23.98
2018-08-16T23:30:19.632Z,23.91
2018-08-16T23:32:45.941Z,23.78
2018-08-16T23:35:12.246Z,23.75
2018-08-16T23:37:38.554Z,23.77
2018-08-16T23:40:04.905Z,23.85
2018-08-16T23:42:31.229Z,23.58
2018-08-16T23:44:57.535Z,23.42
2018-08-16T23:47:23.899Z,23.42
2018-08-16T23:49:50.205Z,23.38
2018-08-16T23:52:16.512Z,23.39
2018-08-16T23:54:42.824Z,23.73
2018-08-16T23:57:09.179Z,23.89
2018-08-16T23:59:35.453Z,24.04
